sensor_id;sensor_type;location;lat;lon;timestamp;P1;durP1;ratioP1;P2;durP2;ratioP2
12869;SDS011;6503;48.572;13.460;2023-01-28T00:00:56;19.38;;;9.80;;
12869;SDS011;6503;48.572;13.460;2023-01-28T00:03:23;19.25;;;9.57;;
12869;SDS011;6503;48.572;13.460;2023-01-28T00:05:50;18.23;;;9.40;;
12869;SDS011;6503;48.572;13.460;2023-01-28T00:08:18;18.90;;;9.80;;
12869;SDS011;6503;48.572;13.460;2023-01-28T00:10:45;18.70;;;10.10;;
12869;SDS011;6503;48.572;13.460;2023-01-28T00:13:12;27.55;;;13.77;;
12869;SDS011;6503;48.572;13.460;2023-01-28T00:15:39;19.38;;;9.57;;
12869;SDS011;6503;48.572;13.460;2023-01-28T00:18:08;16.95;;;8.93;;
12869;SDS011;6503;48.572;13.460;2023-01-28T00:20:35;17.05;;;8.93;;
12869;SDS011;6503;48.572;13.460;2023-01-28T00:23:03;19.38;;;10.05;;
12869;SDS011;6503;48.572;13.460;2023-01-28T00:25:30;19.88;;;10.15;;
12869;SDS011;6503;48.572;13.460;2023-01-28T00:27:57;16.00;;;9.40;;
12869;SDS011;6503;48.572;13.460;2023-01-28T00:30:26;16.08;;;8.80;;
12869;SDS011;6503;48.572;13.460;2023-01-28T00:32:53;19.30;;;9.57;;
12869;SDS011;6503;48.572;13.460;2023-01-28T00:35:22;15.57;;;8.45;;
12869;SDS011;6503;48.572;13.460;2023-01-28T00:37:49;15.30;;;8.30;;
12869;SDS011;6503;48.572;13.460;2023-01-28T00:40:16;21.00;;;9.35;;
12869;SDS011;6503;48.572;13.460;2023-01-28T00:42:43;17.77;;;9.20;;
12869;SDS011;6503;48.572;13.460;2023-01-28T00:45:10;14.35;;;8.40;;
12869;SDS011;6503;48.572;13.460;2023-01-28T00:47:37;16.23;;;8.73;;
12869;SDS011;6503;48.572;13.460;2023-01-28T00:50:04;18.20;;;10.02;;
12869;SDS011;6503;48.572;13.460;2023-01-28T00:52:34;20.27;;;9.48;;
12869;SDS011;6503;48.572;13.460;2023-01-28T00:55:01;15.65;;;9.07;;
12869;SDS011;6503;48.572;13.460;2023-01-28T00:57:28;17.23;;;8.95;;
12869;SDS011;6503;48.572;13.460;2023-01-28T00:59:55;17.42;;;10.10;;
12869;SDS011;6503;48.572;13.460;2023-01-28T01:02:22;16.80;;;8.35;;
12869;SDS011;6503;48.572;13.460;2023-01-28T01:04:49;18.38;;;9.13;;
12869;SDS011;6503;48.572;13.460;2023-01-28T01:07:24;17.00;;;9.68;;
12869;SDS011;6503;48.572;13.460;2023-01-28T01:10:08;19.60;;;9.30;;
12869;SDS011;6503;48.572;13.460;2023-01-28T01:12:36;18.73;;;10.15;;
12869;SDS011;6503;48.572;13.460;2023-01-28T01:15:04;19.52;;;9.52;;
12869;SDS011;6503;48.572;13.460;2023-01-28T01:17:32;18.70;;;10.60;;
12869;SDS011;6503;48.572;13.460;2023-01-28T01:20:01;19.95;;;10.40;;
12869;SDS011;6503;48.572;13.460;2023-01-28T01:22:31;20.08;;;9.88;;
12869;SDS011;6503;48.572;13.460;2023-01-28T01:24:58;19.50;;;9.43;;
12869;SDS011;6503;48.572;13.460;2023-01-28T01:27:27;20.67;;;9.60;;
12869;SDS011;6503;48.572;13.460;2023-01-28T01:29:54;18.92;;;9.25;;
12869;SDS011;6503;48.572;13.460;2023-01-28T01:32:23;20.08;;;9.30;;
12869;SDS011;6503;48.572;13.460;2023-01-28T01:34:50;24.25;;;10.63;;
12869;SDS011;6503;48.572;13.460;2023-01-28T01:37:17;17.05;;;9.20;;
12869;SDS011;6503;48.572;13.460;2023-01-28T01:39:44;16.65;;;9.20;;
12869;SDS011;6503;48.572;13.460;2023-01-28T01:42:13;21.02;;;10.07;;
12869;SDS011;6503;48.572;13.460;2023-01-28T01:47:42;19.25;;;9.13;;
12869;SDS011;6503;48.572;13.460;2023-01-28T01:50:15;21.67;;;9.65;;
12869;SDS011;6503;48.572;13.460;2023-01-28T01:52:45;19.50;;;8.95;;
12869;SDS011;6503;48.572;13.460;2023-01-28T01:55:17;17.88;;;9.45;;
12869;SDS011;6503;48.572;13.460;2023-01-28T01:57:46;19.35;;;9.35;;
12869;SDS011;6503;48.572;13.460;2023-01-28T02:00:19;19.88;;;9.50;;
12869;SDS011;6503;48.572;13.460;2023-01-28T02:02:47;16.73;;;8.85;;
12869;SDS011;6503;48.572;13.460;2023-01-28T02:05:16;17.70;;;9.25;;
12869;SDS011;6503;48.572;13.460;2023-01-28T02:07:45;17.58;;;9.68;;
12869;SDS011;6503;48.572;13.460;2023-01-28T02:10:14;15.48;;;8.90;;
12869;SDS011;6503;48.572;13.460;2023-01-28T02:12:42;16.98;;;8.90;;
12869;SDS011;6503;48.572;13.460;2023-01-28T02:15:16;18.40;;;9.32;;
12869;SDS011;6503;48.572;13.460;2023-01-28T02:17:46;17.85;;;9.07;;
12869;SDS011;6503;48.572;13.460;2023-01-28T02:20:16;18.95;;;9.15;;
12869;SDS011;6503;48.572;13.460;2023-01-28T02:22:54;14.88;;;8.20;;
12869;SDS011;6503;48.572;13.460;2023-01-28T02:26:02;14.98;;;8.50;;
12869;SDS011;6503;48.572;13.460;2023-01-28T02:28:51;18.05;;;8.90;;
12869;SDS011;6503;48.572;13.460;2023-01-28T02:31:22;18.98;;;9.38;;
12869;SDS011;6503;48.572;13.460;2023-01-28T02:33:55;21.00;;;10.52;;
12869;SDS011;6503;48.572;13.460;2023-01-28T02:36:27;18.42;;;9.40;;
12869;SDS011;6503;48.572;13.460;2023-01-28T02:39:03;21.02;;;9.82;;
12869;SDS011;6503;48.572;13.460;2023-01-28T02:41:36;15.88;;;8.40;;
12869;SDS011;6503;48.572;13.460;2023-01-28T02:44:11;17.05;;;8.98;;
12869;SDS011;6503;48.572;13.460;2023-01-28T02:46:38;16.42;;;8.60;;
12869;SDS011;6503;48.572;13.460;2023-01-28T02:49:24;16.35;;;8.93;;
12869;SDS011;6503;48.572;13.460;2023-01-28T02:52:09;16.70;;;8.43;;
12869;SDS011;6503;48.572;13.460;2023-01-28T02:55:06;16.60;;;8.15;;
12869;SDS011;6503;48.572;13.460;2023-01-28T02:57:40;15.45;;;8.93;;
12869;SDS011;6503;48.572;13.460;2023-01-28T03:00:20;18.58;;;9.25;;
12869;SDS011;6503;48.572;13.460;2023-01-28T03:02:52;14.90;;;7.95;;
12869;SDS011;6503;48.572;13.460;2023-01-28T03:05:30;17.92;;;8.55;;
12869;SDS011;6503;48.572;13.460;2023-01-28T03:08:01;18.52;;;8.93;;
12869;SDS011;6503;48.572;13.460;2023-01-28T03:10:49;17.95;;;8.70;;
12869;SDS011;6503;48.572;13.460;2023-01-28T03:13:34;15.70;;;9.20;;
12869;SDS011;6503;48.572;13.460;2023-01-28T03:16:22;17.50;;;8.48;;
12869;SDS011;6503;48.572;13.460;2023-01-28T03:19:06;17.13;;;9.98;;
12869;SDS011;6503;48.572;13.460;2023-01-28T03:21:53;17.40;;;8.65;;
12869;SDS011;6503;48.572;13.460;2023-01-28T03:24:41;16.95;;;9.13;;
12869;SDS011;6503;48.572;13.460;2023-01-28T03:27:31;16.67;;;8.50;;
12869;SDS011;6503;48.572;13.460;2023-01-28T03:30:21;19.38;;;9.43;;
12869;SDS011;6503;48.572;13.460;2023-01-28T03:33:11;18.70;;;8.57;;
12869;SDS011;6503;48.572;13.460;2023-01-28T03:35:56;15.50;;;8.98;;
12869;SDS011;6503;48.572;13.460;2023-01-28T03:38:41;21.25;;;9.27;;
12869;SDS011;6503;48.572;13.460;2023-01-28T03:41:12;17.63;;;8.63;;
12869;SDS011;6503;48.572;13.460;2023-01-28T03:43:46;19.42;;;8.82;;
12869;SDS011;6503;48.572;13.460;2023-01-28T03:46:14;16.90;;;8.60;;
12869;SDS011;6503;48.572;13.460;2023-01-28T03:48:44;20.75;;;8.98;;
12869;SDS011;6503;48.572;13.460;2023-01-28T03:51:11;17.25;;;8.32;;
12869;SDS011;6503;48.572;13.460;2023-01-28T03:53:40;18.92;;;8.80;;
12869;SDS011;6503;48.572;13.460;2023-01-28T03:56:07;19.50;;;8.35;;
12869;SDS011;6503;48.572;13.460;2023-01-28T03:58:45;17.48;;;9.23;;
12869;SDS011;6503;48.572;13.460;2023-01-28T04:01:17;19.15;;;9.50;;
12869;SDS011;6503;48.572;13.460;2023-01-28T04:03:46;18.70;;;8.70;;
12869;SDS011;6503;48.572;13.460;2023-01-28T04:06:14;17.70;;;8.70;;
12869;SDS011;6503;48.572;13.460;2023-01-28T04:08:41;18.88;;;9.25;;
12869;SDS011;6503;48.572;13.460;2023-01-28T04:11:16;20.05;;;9.20;;
12869;SDS011;6503;48.572;13.460;2023-01-28T04:13:45;18.30;;;9.02;;
12869;SDS011;6503;48.572;13.460;2023-01-28T04:16:13;17.35;;;8.75;;
12869;SDS011;6503;48.572;13.460;2023-01-28T04:18:44;20.35;;;9.43;;
12869;SDS011;6503;48.572;13.460;2023-01-28T04:21:13;16.30;;;9.40;;
12869;SDS011;6503;48.572;13.460;2023-01-28T04:23:40;20.30;;;8.70;;
12869;SDS011;6503;48.572;13.460;2023-01-28T04:26:07;19.17;;;9.80;;
12869;SDS011;6503;48.572;13.460;2023-01-28T04:28:35;18.30;;;9.38;;
12869;SDS011;6503;48.572;13.460;2023-01-28T04:31:02;22.00;;;9.68;;
12869;SDS011;6503;48.572;13.460;2023-01-28T04:33:29;20.05;;;9.77;;
12869;SDS011;6503;48.572;13.460;2023-01-28T04:35:56;17.45;;;9.27;;
12869;SDS011;6503;48.572;13.460;2023-01-28T04:38:25;18.73;;;9.00;;
12869;SDS011;6503;48.572;13.460;2023-01-28T04:40:52;16.30;;;8.73;;
12869;SDS011;6503;48.572;13.460;2023-01-28T04:43:20;17.40;;;9.10;;
12869;SDS011;6503;48.572;13.460;2023-01-28T04:45:47;18.63;;;9.00;;
12869;SDS011;6503;48.572;13.460;2023-01-28T04:48:15;18.35;;;9.23;;
12869;SDS011;6503;48.572;13.460;2023-01-28T04:50:42;20.88;;;10.02;;
12869;SDS011;6503;48.572;13.460;2023-01-28T04:53:10;20.55;;;10.50;;
12869;SDS011;6503;48.572;13.460;2023-01-28T04:55:38;19.88;;;10.65;;
12869;SDS011;6503;48.572;13.460;2023-01-28T04:58:06;19.80;;;9.00;;
12869;SDS011;6503;48.572;13.460;2023-01-28T05:00:33;21.10;;;10.68;;
12869;SDS011;6503;48.572;13.460;2023-01-28T05:03:00;20.33;;;10.45;;
12869;SDS011;6503;48.572;13.460;2023-01-28T05:05:27;18.88;;;8.60;;
12869;SDS011;6503;48.572;13.460;2023-01-28T05:07:55;19.40;;;9.50;;
12869;SDS011;6503;48.572;13.460;2023-01-28T05:10:24;22.08;;;10.25;;
12869;SDS011;6503;48.572;13.460;2023-01-28T05:12:53;20.50;;;10.60;;
12869;SDS011;6503;48.572;13.460;2023-01-28T05:15:20;19.85;;;9.73;;
12869;SDS011;6503;48.572;13.460;2023-01-28T05:17:47;18.73;;;9.13;;
12869;SDS011;6503;48.572;13.460;2023-01-28T05:20:14;21.30;;;9.65;;
12869;SDS011;6503;48.572;13.460;2023-01-28T05:22:41;24.83;;;10.55;;
12869;SDS011;6503;48.572;13.460;2023-01-28T05:25:08;15.93;;;8.88;;
12869;SDS011;6503;48.572;13.460;2023-01-28T05:27:36;17.35;;;8.80;;
12869;SDS011;6503;48.572;13.460;2023-01-28T05:30:06;20.70;;;9.45;;
12869;SDS011;6503;48.572;13.460;2023-01-28T05:32:34;19.50;;;9.48;;
12869;SDS011;6503;48.572;13.460;2023-01-28T05:35:01;18.20;;;9.45;;
12869;SDS011;6503;48.572;13.460;2023-01-28T05:37:28;19.55;;;9.70;;
12869;SDS011;6503;48.572;13.460;2023-01-28T05:39:55;18.05;;;8.13;;
12869;SDS011;6503;48.572;13.460;2023-01-28T05:42:22;19.20;;;9.25;;
12869;SDS011;6503;48.572;13.460;2023-01-28T05:44:49;19.25;;;9.70;;
12869;SDS011;6503;48.572;13.460;2023-01-28T05:47:17;19.55;;;8.95;;
12869;SDS011;6503;48.572;13.460;2023-01-28T05:49:44;19.02;;;9.95;;
12869;SDS011;6503;48.572;13.460;2023-01-28T05:52:11;21.60;;;10.32;;
12869;SDS011;6503;48.572;13.460;2023-01-28T05:54:38;18.30;;;9.43;;
12869;SDS011;6503;48.572;13.460;2023-01-28T05:57:05;18.27;;;9.18;;
12869;SDS011;6503;48.572;13.460;2023-01-28T05:59:33;20.75;;;10.05;;
12869;SDS011;6503;48.572;13.460;2023-01-28T06:02:00;23.73;;;10.73;;
12869;SDS011;6503;48.572;13.460;2023-01-28T06:04:28;19.85;;;10.13;;
12869;SDS011;6503;48.572;13.460;2023-01-28T06:06:55;21.15;;;10.35;;
12869;SDS011;6503;48.572;13.460;2023-01-28T06:09:22;22.38;;;10.95;;
12869;SDS011;6503;48.572;13.460;2023-01-28T06:11:49;24.25;;;10.95;;
12869;SDS011;6503;48.572;13.460;2023-01-28T06:14:16;25.20;;;10.55;;
12869;SDS011;6503;48.572;13.460;2023-01-28T06:16:44;24.15;;;11.98;;
12869;SDS011;6503;48.572;13.460;2023-01-28T06:19:11;24.58;;;11.60;;
12869;SDS011;6503;48.572;13.460;2023-01-28T06:21:39;24.80;;;11.23;;
12869;SDS011;6503;48.572;13.460;2023-01-28T06:24:07;25.83;;;11.40;;
12869;SDS011;6503;48.572;13.460;2023-01-28T06:26:34;22.10;;;11.65;;
12869;SDS011;6503;48.572;13.460;2023-01-28T06:29:01;22.40;;;11.02;;
12869;SDS011;6503;48.572;13.460;2023-01-28T06:31:29;25.77;;;11.38;;
12869;SDS011;6503;48.572;13.460;2023-01-28T06:33:56;22.30;;;11.40;;
12869;SDS011;6503;48.572;13.460;2023-01-28T06:36:23;24.30;;;11.60;;
12869;SDS011;6503;48.572;13.460;2023-01-28T06:38:52;22.80;;;11.43;;
12869;SDS011;6503;48.572;13.460;2023-01-28T06:41:19;24.35;;;11.20;;
12869;SDS011;6503;48.572;13.460;2023-01-28T06:43:46;24.17;;;12.73;;
12869;SDS011;6503;48.572;13.460;2023-01-28T06:46:13;23.30;;;11.55;;
12869;SDS011;6503;48.572;13.460;2023-01-28T06:48:40;22.30;;;11.70;;
12869;SDS011;6503;48.572;13.460;2023-01-28T06:51:07;22.50;;;11.30;;
12869;SDS011;6503;48.572;13.460;2023-01-28T06:53:34;23.98;;;11.75;;
12869;SDS011;6503;48.572;13.460;2023-01-28T06:56:03;23.83;;;11.60;;
12869;SDS011;6503;48.572;13.460;2023-01-28T06:58:31;25.23;;;11.70;;
12869;SDS011;6503;48.572;13.460;2023-01-28T07:00:58;21.58;;;11.80;;
12869;SDS011;6503;48.572;13.460;2023-01-28T07:03:25;23.15;;;11.40;;
12869;SDS011;6503;48.572;13.460;2023-01-28T07:05:52;24.58;;;10.85;;
12869;SDS011;6503;48.572;13.460;2023-01-28T07:08:19;23.77;;;11.57;;
12869;SDS011;6503;48.572;13.460;2023-01-28T07:10:46;24.77;;;11.95;;
12869;SDS011;6503;48.572;13.460;2023-01-28T07:13:15;21.10;;;11.43;;
12869;SDS011;6503;48.572;13.460;2023-01-28T07:15:42;21.27;;;11.73;;
12869;SDS011;6503;48.572;13.460;2023-01-28T07:18:09;22.75;;;10.70;;
12869;SDS011;6503;48.572;13.460;2023-01-28T07:20:36;24.30;;;11.27;;
12869;SDS011;6503;48.572;13.460;2023-01-28T07:23:03;22.15;;;11.10;;
12869;SDS011;6503;48.572;13.460;2023-01-28T07:25:30;23.63;;;12.10;;
12869;SDS011;6503;48.572;13.460;2023-01-28T07:27:57;22.05;;;11.00;;
12869;SDS011;6503;48.572;13.460;2023-01-28T07:30:26;22.15;;;11.55;;
12869;SDS011;6503;48.572;13.460;2023-01-28T07:32:56;18.58;;;9.85;;
12869;SDS011;6503;48.572;13.460;2023-01-28T07:35:24;25.75;;;11.18;;
12869;SDS011;6503;48.572;13.460;2023-01-28T07:37:52;25.77;;;11.88;;
12869;SDS011;6503;48.572;13.460;2023-01-28T07:40:19;23.40;;;11.48;;
12869;SDS011;6503;48.572;13.460;2023-01-28T07:42:46;22.65;;;11.20;;
12869;SDS011;6503;48.572;13.460;2023-01-28T07:45:14;25.52;;;12.40;;
12869;SDS011;6503;48.572;13.460;2023-01-28T07:47:43;23.70;;;11.85;;
12869;SDS011;6503;48.572;13.460;2023-01-28T07:50:10;23.60;;;11.90;;
12869;SDS011;6503;48.572;13.460;2023-01-28T07:52:37;24.25;;;11.77;;
12869;SDS011;6503;48.572;13.460;2023-01-28T07:55:09;23.08;;;11.43;;
12869;SDS011;6503;48.572;13.460;2023-01-28T07:57:46;23.00;;;12.30;;
12869;SDS011;6503;48.572;13.460;2023-01-28T08:00:18;22.08;;;11.93;;
12869;SDS011;6503;48.572;13.460;2023-01-28T08:02:47;21.77;;;11.52;;
12869;SDS011;6503;48.572;13.460;2023-01-28T08:05:15;22.47;;;11.03;;
12869;SDS011;6503;48.572;13.460;2023-01-28T08:07:43;19.63;;;11.30;;
12869;SDS011;6503;48.572;13.460;2023-01-28T08:10:11;22.95;;;11.05;;
12869;SDS011;6503;48.572;13.460;2023-01-28T08:12:38;25.38;;;11.98;;
12869;SDS011;6503;48.572;13.460;2023-01-28T08:15:07;26.40;;;11.65;;
12869;SDS011;6503;48.572;13.460;2023-01-28T08:17:34;25.77;;;12.05;;
12869;SDS011;6503;48.572;13.460;2023-01-28T08:20:03;23.35;;;11.77;;
12869;SDS011;6503;48.572;13.460;2023-01-28T08:24:58;20.20;;;10.48;;
12869;SDS011;6503;48.572;13.460;2023-01-28T08:27:25;20.42;;;11.68;;
12869;SDS011;6503;48.572;13.460;2023-01-28T08:29:53;24.30;;;12.30;;
12869;SDS011;6503;48.572;13.460;2023-01-28T08:32:20;21.55;;;11.45;;
12869;SDS011;6503;48.572;13.460;2023-01-28T08:34:47;23.30;;;11.80;;
12869;SDS011;6503;48.572;13.460;2023-01-28T08:37:16;26.48;;;12.80;;
12869;SDS011;6503;48.572;13.460;2023-01-28T08:39:43;23.17;;;12.05;;
12869;SDS011;6503;48.572;13.460;2023-01-28T08:42:10;30.02;;;13.07;;
12869;SDS011;6503;48.572;13.460;2023-01-28T08:44:37;23.88;;;12.15;;
12869;SDS011;6503;48.572;13.460;2023-01-28T08:47:05;22.55;;;12.23;;
12869;SDS011;6503;48.572;13.460;2023-01-28T08:49:33;25.10;;;13.43;;
12869;SDS011;6503;48.572;13.460;2023-01-28T08:52:00;22.33;;;12.48;;
12869;SDS011;6503;48.572;13.460;2023-01-28T08:54:29;25.13;;;12.90;;
12869;SDS011;6503;48.572;13.460;2023-01-28T08:56:56;26.13;;;13.15;;
12869;SDS011;6503;48.572;13.460;2023-01-28T08:59:23;26.42;;;13.27;;
12869;SDS011;6503;48.572;13.460;2023-01-28T09:01:51;28.40;;;14.48;;
12869;SDS011;6503;48.572;13.460;2023-01-28T09:04:18;23.83;;;12.25;;
12869;SDS011;6503;48.572;13.460;2023-01-28T09:06:45;26.63;;;12.43;;
12869;SDS011;6503;48.572;13.460;2023-01-28T09:09:14;27.98;;;13.45;;
12869;SDS011;6503;48.572;13.460;2023-01-28T09:11:43;27.80;;;12.73;;
12869;SDS011;6503;48.572;13.460;2023-01-28T09:14:10;24.52;;;12.85;;
12869;SDS011;6503;48.572;13.460;2023-01-28T09:16:37;24.92;;;13.13;;
12869;SDS011;6503;48.572;13.460;2023-01-28T09:19:04;22.80;;;13.55;;
12869;SDS011;6503;48.572;13.460;2023-01-28T09:21:33;24.88;;;13.57;;
12869;SDS011;6503;48.572;13.460;2023-01-28T09:24:02;29.80;;;14.25;;
12869;SDS011;6503;48.572;13.460;2023-01-28T09:26:30;26.88;;;13.55;;
12869;SDS011;6503;48.572;13.460;2023-01-28T09:29:00;29.95;;;13.43;;
12869;SDS011;6503;48.572;13.460;2023-01-28T09:31:27;26.42;;;13.82;;
12869;SDS011;6503;48.572;13.460;2023-01-28T09:33:54;28.02;;;14.73;;
12869;SDS011;6503;48.572;13.460;2023-01-28T09:36:22;25.73;;;12.70;;
12869;SDS011;6503;48.572;13.460;2023-01-28T09:38:49;28.27;;;13.55;;
12869;SDS011;6503;48.572;13.460;2023-01-28T09:41:22;24.77;;;13.80;;
12869;SDS011;6503;48.572;13.460;2023-01-28T09:44:14;28.80;;;14.07;;
12869;SDS011;6503;48.572;13.460;2023-01-28T09:46:53;28.45;;;13.35;;
12869;SDS011;6503;48.572;13.460;2023-01-28T09:49:31;27.58;;;13.02;;
12869;SDS011;6503;48.572;13.460;2023-01-28T09:52:07;24.88;;;13.73;;
12869;SDS011;6503;48.572;13.460;2023-01-28T09:54:41;26.80;;;13.50;;
12869;SDS011;6503;48.572;13.460;2023-01-28T09:57:18;29.33;;;15.63;;
12869;SDS011;6503;48.572;13.460;2023-01-28T09:59:49;27.85;;;14.60;;
12869;SDS011;6503;48.572;13.460;2023-01-28T10:05:15;25.95;;;13.60;;
12869;SDS011;6503;48.572;13.460;2023-01-28T10:07:47;29.63;;;14.48;;
12869;SDS011;6503;48.572;13.460;2023-01-28T10:10:25;24.13;;;13.45;;
12869;SDS011;6503;48.572;13.460;2023-01-28T10:13:03;26.02;;;13.30;;
12869;SDS011;6503;48.572;13.460;2023-01-28T10:18:30;27.77;;;12.88;;
12869;SDS011;6503;48.572;13.460;2023-01-28T10:21:04;29.50;;;14.77;;
12869;SDS011;6503;48.572;13.460;2023-01-28T10:23:39;27.42;;;13.65;;
12869;SDS011;6503;48.572;13.460;2023-01-28T10:26:15;30.58;;;15.32;;
12869;SDS011;6503;48.572;13.460;2023-01-28T10:28:51;32.20;;;16.52;;
12869;SDS011;6503;48.572;13.460;2023-01-28T10:31:29;25.48;;;13.68;;
12869;SDS011;6503;48.572;13.460;2023-01-28T10:34:02;26.65;;;14.13;;
12869;SDS011;6503;48.572;13.460;2023-01-28T10:36:30;28.67;;;14.68;;
12869;SDS011;6503;48.572;13.460;2023-01-28T10:38:58;29.15;;;14.25;;
12869;SDS011;6503;48.572;13.460;2023-01-28T10:41:27;26.63;;;13.45;;
12869;SDS011;6503;48.572;13.460;2023-01-28T10:43:55;27.50;;;14.13;;
12869;SDS011;6503;48.572;13.460;2023-01-28T10:46:25;24.10;;;12.50;;
12869;SDS011;6503;48.572;13.460;2023-01-28T10:48:58;25.83;;;12.90;;
12869;SDS011;6503;48.572;13.460;2023-01-28T10:51:33;29.58;;;14.40;;
12869;SDS011;6503;48.572;13.460;2023-01-28T10:54:13;26.65;;;14.20;;
12869;SDS011;6503;48.572;13.460;2023-01-28T10:56:46;25.70;;;14.80;;
12869;SDS011;6503;48.572;13.460;2023-01-28T10:59:18;25.77;;;14.15;;
12869;SDS011;6503;48.572;13.460;2023-01-28T11:01:50;24.98;;;14.60;;
12869;SDS011;6503;48.572;13.460;2023-01-28T11:04:21;24.48;;;14.18;;
12869;SDS011;6503;48.572;13.460;2023-01-28T11:06:53;24.30;;;12.60;;
12869;SDS011;6503;48.572;13.460;2023-01-28T11:09:24;26.30;;;13.38;;
12869;SDS011;6503;48.572;13.460;2023-01-28T11:11:53;28.80;;;14.63;;
12869;SDS011;6503;48.572;13.460;2023-01-28T11:14:21;25.95;;;12.88;;
12869;SDS011;6503;48.572;13.460;2023-01-28T11:16:52;25.95;;;14.25;;
12869;SDS011;6503;48.572;13.460;2023-01-28T11:19:27;24.77;;;13.88;;
12869;SDS011;6503;48.572;13.460;2023-01-28T11:21:59;27.75;;;14.52;;
12869;SDS011;6503;48.572;13.460;2023-01-28T11:24:30;27.08;;;13.63;;
12869;SDS011;6503;48.572;13.460;2023-01-28T11:27:00;30.30;;;14.35;;
12869;SDS011;6503;48.572;13.460;2023-01-28T11:29:41;31.35;;;14.63;;
12869;SDS011;6503;48.572;13.460;2023-01-28T11:32:18;24.23;;;13.50;;
12869;SDS011;6503;48.572;13.460;2023-01-28T11:34:47;25.08;;;13.48;;
12869;SDS011;6503;48.572;13.460;2023-01-28T11:37:19;23.77;;;12.70;;
12869;SDS011;6503;48.572;13.460;2023-01-28T11:42:16;24.45;;;13.10;;
12869;SDS011;6503;48.572;13.460;2023-01-28T11:47:31;24.70;;;13.70;;
12869;SDS011;6503;48.572;13.460;2023-01-28T11:50:19;27.35;;;14.63;;
12869;SDS011;6503;48.572;13.460;2023-01-28T11:52:54;27.17;;;13.88;;
12869;SDS011;6503;48.572;13.460;2023-01-28T11:55:34;25.90;;;13.48;;
12869;SDS011;6503;48.572;13.460;2023-01-28T11:58:11;29.67;;;15.02;;
12869;SDS011;6503;48.572;13.460;2023-01-28T12:00:50;27.52;;;13.80;;
12869;SDS011;6503;48.572;13.460;2023-01-28T12:06:39;27.58;;;14.07;;
12869;SDS011;6503;48.572;13.460;2023-01-28T12:09:19;25.05;;;13.90;;
12869;SDS011;6503;48.572;13.460;2023-01-28T12:12:00;22.42;;;12.55;;
12869;SDS011;6503;48.572;13.460;2023-01-28T12:14:55;23.83;;;13.60;;
12869;SDS011;6503;48.572;13.460;2023-01-28T12:17:39;25.63;;;12.25;;
12869;SDS011;6503;48.572;13.460;2023-01-28T12:20:18;23.40;;;12.73;;
12869;SDS011;6503;48.572;13.460;2023-01-28T12:23:04;26.20;;;13.30;;
12869;SDS011;6503;48.572;13.460;2023-01-28T12:25:50;23.33;;;12.63;;
12869;SDS011;6503;48.572;13.460;2023-01-28T12:28:29;24.45;;;12.85;;
12869;SDS011;6503;48.572;13.460;2023-01-28T12:31:13;23.63;;;12.85;;
12869;SDS011;6503;48.572;13.460;2023-01-28T12:33:58;23.83;;;13.20;;
12869;SDS011;6503;48.572;13.460;2023-01-28T12:36:51;23.48;;;12.98;;
12869;SDS011;6503;48.572;13.460;2023-01-28T12:39:29;25.20;;;13.60;;
12869;SDS011;6503;48.572;13.460;2023-01-28T12:42:03;22.20;;;12.75;;
12869;SDS011;6503;48.572;13.460;2023-01-28T12:44:37;23.70;;;13.48;;
12869;SDS011;6503;48.572;13.460;2023-01-28T12:47:09;30.50;;;14.48;;
12869;SDS011;6503;48.572;13.460;2023-01-28T12:49:42;25.63;;;13.18;;
12869;SDS011;6503;48.572;13.460;2023-01-28T12:52:16;26.95;;;14.82;;
12869;SDS011;6503;48.572;13.460;2023-01-28T12:54:51;24.45;;;13.68;;
12869;SDS011;6503;48.572;13.460;2023-01-28T12:57:23;27.80;;;14.90;;
12869;SDS011;6503;48.572;13.460;2023-01-28T12:59:55;27.23;;;13.07;;
12869;SDS011;6503;48.572;13.460;2023-01-28T13:02:30;27.90;;;14.82;;
12869;SDS011;6503;48.572;13.460;2023-01-28T13:05:04;27.77;;;13.43;;
12869;SDS011;6503;48.572;13.460;2023-01-28T13:07:38;26.08;;;14.10;;
12869;SDS011;6503;48.572;13.460;2023-01-28T13:10:16;25.13;;;12.90;;
12869;SDS011;6503;48.572;13.460;2023-01-28T13:12:47;28.05;;;14.10;;
12869;SDS011;6503;48.572;13.460;2023-01-28T13:15:16;24.50;;;12.88;;
12869;SDS011;6503;48.572;13.460;2023-01-28T13:17:55;23.13;;;11.80;;
12869;SDS011;6503;48.572;13.460;2023-01-28T13:20:34;22.65;;;11.90;;
12869;SDS011;6503;48.572;13.460;2023-01-28T13:23:05;29.20;;;13.10;;
12869;SDS011;6503;48.572;13.460;2023-01-28T13:25:49;25.70;;;13.20;;
12869;SDS011;6503;48.572;13.460;2023-01-28T13:28:24;21.95;;;12.30;;
12869;SDS011;6503;48.572;13.460;2023-01-28T13:30:59;22.27;;;11.35;;
12869;SDS011;6503;48.572;13.460;2023-01-28T13:33:29;22.23;;;11.65;;
12869;SDS011;6503;48.572;13.460;2023-01-28T13:36:00;24.63;;;13.13;;
12869;SDS011;6503;48.572;13.460;2023-01-28T13:38:45;24.15;;;12.55;;
12869;SDS011;6503;48.572;13.460;2023-01-28T13:41:13;24.92;;;12.68;;
12869;SDS011;6503;48.572;13.460;2023-01-28T13:43:40;22.85;;;12.27;;
12869;SDS011;6503;48.572;13.460;2023-01-28T13:46:09;24.63;;;13.15;;
12869;SDS011;6503;48.572;13.460;2023-01-28T13:48:41;22.05;;;13.07;;
12869;SDS011;6503;48.572;13.460;2023-01-28T13:51:17;24.00;;;13.25;;
12869;SDS011;6503;48.572;13.460;2023-01-28T13:53:53;24.35;;;12.85;;
12869;SDS011;6503;48.572;13.460;2023-01-28T13:56:25;22.70;;;12.02;;
12869;SDS011;6503;48.572;13.460;2023-01-28T14:02:03;25.60;;;12.85;;
12869;SDS011;6503;48.572;13.460;2023-01-28T14:05:08;25.63;;;13.07;;
12869;SDS011;6503;48.572;13.460;2023-01-28T14:11:22;25.10;;;13.15;;
12869;SDS011;6503;48.572;13.460;2023-01-28T14:14:20;26.85;;;13.02;;
12869;SDS011;6503;48.572;13.460;2023-01-28T14:17:02;23.25;;;12.43;;
12869;SDS011;6503;48.572;13.460;2023-01-28T14:19:43;26.27;;;12.40;;
12869;SDS011;6503;48.572;13.460;2023-01-28T14:22:13;23.23;;;11.82;;
12869;SDS011;6503;48.572;13.460;2023-01-28T14:24:45;22.25;;;12.40;;
12869;SDS011;6503;48.572;13.460;2023-01-28T14:27:15;25.90;;;14.15;;
12869;SDS011;6503;48.572;13.460;2023-01-28T14:29:50;22.88;;;12.18;;
12869;SDS011;6503;48.572;13.460;2023-01-28T14:32:30;23.83;;;12.75;;
12869;SDS011;6503;48.572;13.460;2023-01-28T14:34:59;27.77;;;13.80;;
12869;SDS011;6503;48.572;13.460;2023-01-28T14:37:32;27.33;;;13.32;;
12869;SDS011;6503;48.572;13.460;2023-01-28T14:40:00;27.00;;;13.50;;
12869;SDS011;6503;48.572;13.460;2023-01-28T14:42:31;21.40;;;12.23;;
12869;SDS011;6503;48.572;13.460;2023-01-28T14:45:06;25.67;;;12.85;;
12869;SDS011;6503;48.572;13.460;2023-01-28T14:47:51;27.42;;;13.68;;
12869;SDS011;6503;48.572;13.460;2023-01-28T14:50:28;24.33;;;12.85;;
12869;SDS011;6503;48.572;13.460;2023-01-28T14:56:29;26.10;;;13.43;;
12869;SDS011;6503;48.572;13.460;2023-01-28T14:59:11;23.97;;;13.53;;
12869;SDS011;6503;48.572;13.460;2023-01-28T15:01:44;28.92;;;13.05;;
12869;SDS011;6503;48.572;13.460;2023-01-28T15:04:20;27.73;;;13.50;;
12869;SDS011;6503;48.572;13.460;2023-01-28T15:06:49;25.08;;;12.38;;
12869;SDS011;6503;48.572;13.460;2023-01-28T15:09:17;27.92;;;13.23;;
12869;SDS011;6503;48.572;13.460;2023-01-28T15:11:45;28.92;;;13.20;;
12869;SDS011;6503;48.572;13.460;2023-01-28T15:14:21;28.42;;;15.05;;
12869;SDS011;6503;48.572;13.460;2023-01-28T15:16:54;30.00;;;14.48;;
12869;SDS011;6503;48.572;13.460;2023-01-28T15:19:25;27.60;;;13.05;;
12869;SDS011;6503;48.572;13.460;2023-01-28T15:21:55;28.27;;;13.05;;